Time;durP1;ratioP1;P1;durP2;ratioP2;P2;SDS_P1;SDS_P2;PMS_P1;PMS_P2;Temp;Humidity;BMP_temperature;BMP_pressure;BME280_temperature;BME280_humidity;BME280_pressure;Samples;Min_cycle;Max_cycle;Signal;HPM_P1;HPM_P2
2021/03/07 00:01:18;;;;;;;;;;;;;;;3.80;66.91;101836.53;5003664;28;19936;-70
2021/03/07 00:03:43;;;;;;;;;;;;;;;3.77;67.38;101839.00;5003504;28;20384;-70
2021/03/07 00:06:08;;;;;;;;;;;;;;;3.74;67.19;101837.13;5000027;28;19914;-70
2021/03/07 00:08:34;;;;;;;;;;;;;;;3.76;67.83;101829.38;5000074;28;19959;-70
2021/03/07 00:10:59;;;;;;;;;;;;;;;3.74;67.48;101823.19;5002722;28;19914;-70
2021/03/07 00:13:25;;;;;;;;;;;;;;;3.78;67.36;101819.00;5003624;28;19963;-70
2021/03/07 00:15:50;;;;;;;;;;;;;;;3.85;67.31;101823.66;5002205;28;20372;-70
2021/03/07 00:18:15;;;;;;;;;;;;;;;3.84;67.33;101820.16;5000136;28;19945;-70
2021/03/07 00:20:40;;;;;;;;;;;;;;;3.85;67.47;101821.94;5000204;28;20376;-71
2021/03/07 00:23:06;;;;;;;;;;;;;;;3.85;67.09;101810.59;5003471;28;20308;-70
2021/03/07 00:25:31;;;;;;;;;;;;;;;3.85;67.28;101816.72;5003281;28;20015;-70
2021/03/07 00:27:56;;;;;;;;;;;;;;;3.82;67.10;101806.13;5001419;28;19921;-71
2021/03/07 00:30:22;;;;;;;;;;;;;;;3.77;67.03;101806.75;5000050;28;19918;-70
2021/03/07 00:32:47;;;;;;;;;;;;;;;3.71;67.45;101796.97;5000715;28;19929;-70
2021/03/07 00:35:13;;;;;;;;;;;;;;;3.75;67.10;101801.50;5004361;28;19949;-71
2021/03/07 00:37:38;;;;;;;;;;;;;;;3.71;67.24;101796.97;5006957;28;19913;-70
2021/03/07 00:40:05;;;;;;;;;;;;;;;3.67;67.36;101795.94;5004021;28;19965;-71
2021/03/07 00:42:30;;;;;;;;;;;;;;;3.67;67.36;101800.28;5003589;28;19941;-70
2021/03/07 00:44:55;;;;;;;;;;;;;;;3.67;67.54;101789.84;5005411;28;20499;-70
2021/03/07 00:47:21;;;;;;;;;;;;;;;3.67;67.35;101790.72;5006593;28;19914;-70
2021/03/07 00:49:46;;;;;;;;;;;;;;;3.65;67.29;101783.66;5006255;28;19957;-70
2021/03/07 00:52:11;;;;;;;;;;;;;;;3.62;67.74;101786.16;5003393;28;19922;-70
2021/03/07 00:54:37;;;;;;;;;;;;;;;3.63;67.59;101782.69;5003667;28;19917;-70
2021/03/07 00:57:02;;;;;;;;;;;;;;;3.68;67.23;101775.94;5005769;28;20007;-71
2021/03/07 00:59:27;;;;;;;;;;;;;;;3.73;67.28;101763.97;5004961;28;19913;-70
2021/03/07 01:01:53;;;;;;;;;;;;;;;3.68;67.03;101770.72;5004980;28;19914;-70
2021/03/07 01:04:18;;;;;;;;;;;;;;;3.73;67.56;101761.38;5006562;28;19980;-70
2021/03/07 01:06:43;;;;;;;;;;;;;;;3.74;66.76;101761.41;5005868;28;19917;-71
2021/03/07 01:09:09;;;;;;;;;;;;;;;3.78;66.98;101752.00;5003138;28;19956;-70
2021/03/07 01:11:34;;;;;;;;;;;;;;;3.78;66.75;101743.28;5003051;28;19918;-70
2021/03/07 01:14:00;;;;;;;;;;;;;;;3.74;66.82;101734.41;5005377;28;19921;-71
2021/03/07 01:16:25;;;;;;;;;;;;;;;3.78;67.21;101741.56;5005991;28;19917;-70
2021/03/07 01:18:50;;;;;;;;;;;;;;;3.75;67.32;101733.59;5005156;28;19913;-70
2021/03/07 01:21:16;;;;;;;;;;;;;;;3.77;66.94;101718.88;5002825;28;19937;-70
2021/03/07 01:23:41;;;;;;;;;;;;;;;3.71;67.56;101722.13;5002846;28;19909;-70
2021/03/07 01:26:06;;;;;;;;;;;;;;;3.76;67.23;101714.50;5005849;28;20307;-70
2021/03/07 01:28:32;;;;;;;;;;;;;;;3.71;67.24;101716.03;5005997;28;19921;-71
2021/03/07 01:30:57;;;;;;;;;;;;;;;3.74;67.01;101709.19;5003911;28;19913;-70
2021/03/07 01:33:22;;;;;;;;;;;;;;;3.74;67.11;101705.69;5002673;28;20007;-70
2021/03/07 01:35:48;;;;;;;;;;;;;;;3.75;67.40;101704.88;5003175;28;20392;-70
2021/03/07 01:38:13;;;;;;;;;;;;;;;3.68;66.90;101697.63;4988226;28;19924;-70
2021/03/07 01:40:41;;;;;;;;;;;;;;;3.69;67.19;101702.00;5005860;28;19920;-70
2021/03/07 01:43:06;;;;;;;;;;;;;;;3.73;67.18;101689.13;5002518;28;19956;-70
2021/03/07 01:45:33;;;;;;;;;;;;;;;3.69;67.12;101687.25;5002241;28;20364;-70
2021/03/07 01:48:00;;;;;;;;;;;;;;;3.68;67.48;101688.06;5003991;28;19945;-71
2021/03/07 01:50:27;;;;;;;;;;;;;;;3.66;66.99;101679.28;5005697;28;20292;-70
2021/03/07 01:52:53;;;;;;;;;;;;;;;3.68;67.23;101679.34;5004153;28;20350;-71
2021/03/07 01:55:19;;;;;;;;;;;;;;;3.60;66.96;101671.19;5002202;28;19913;-71
2021/03/07 01:57:46;;;;;;;;;;;;;;;3.56;67.08;101676.22;4985026;28;19914;-70
2021/03/07 02:00:14;;;;;;;;;;;;;;;3.51;67.30;101678.66;5005480;28;20383;-71
2021/03/07 02:02:39;;;;;;;;;;;;;;;3.42;67.40;101671.34;5005560;28;19920;-70
2021/03/07 02:05:08;;;;;;;;;;;;;;;3.38;67.52;101673.75;5002242;28;20296;-71
2021/03/07 02:07:33;;;;;;;;;;;;;;;3.28;67.20;101667.28;5001810;28;19964;-71
2021/03/07 02:09:59;;;;;;;;;;;;;;;3.18;66.95;101662.50;5004253;28;19913;-71
2021/03/07 02:12:25;;;;;;;;;;;;;;;3.14;67.55;101665.78;5005455;28;20269;-71
2021/03/07 02:14:51;;;;;;;;;;;;;;;3.05;67.03;101661.09;5004189;28;19913;-70
2021/03/07 02:17:17;;;;;;;;;;;;;;;2.94;67.90;101658.03;5001586;28;19914;-70
2021/03/07 02:19:42;;;;;;;;;;;;;;;2.94;67.45;101659.75;5001706;28;19940;-70
2021/03/07 02:22:12;;;;;;;;;;;;;;;2.88;67.58;101656.88;5005168;28;19914;-70
2021/03/07 02:24:37;;;;;;;;;;;;;;;2.77;67.75;101643.38;5005086;28;19936;-70
2021/03/07 02:27:03;;;;;;;;;;;;;;;2.72;67.55;101644.88;5001922;28;20001;-70
2021/03/07 02:29:28;;;;;;;;;;;;;;;2.68;67.74;101637.78;5001562;28;19914;-70
2021/03/07 02:32:00;;;;;;;;;;;;;;;2.64;67.79;101647.16;5003096;28;19918;-70
2021/03/07 02:34:25;;;;;;;;;;;;;;;2.60;67.87;101642.66;5003921;28;20406;-71
2021/03/07 02:36:52;;;;;;;;;;;;;;;2.60;68.13;101640.94;5010612;28;19909;-71
2021/03/07 02:39:19;;;;;;;;;;;;;;;2.60;67.71;101640.03;5001303;28;20377;-70
2021/03/07 02:41:44;;;;;;;;;;;;;;;2.60;67.98;101630.50;4984164;28;19917;-70
2021/03/07 02:44:13;;;;;;;;;;;;;;;2.62;67.91;101626.25;5004842;28;19914;-71
2021/03/07 02:46:39;;;;;;;;;;;;;;;2.65;67.24;101633.31;5004422;28;19913;-70
2021/03/07 02:49:07;;;;;;;;;;;;;;;2.63;67.29;101624.53;5001645;28;19913;-70
2021/03/07 02:51:33;;;;;;;;;;;;;;;2.66;67.43;101622.06;5001118;28;19965;-71
2021/03/07 02:54:02;;;;;;;;;;;;;;;2.68;67.09;101616.91;5002959;28;20308;-71
2021/03/07 02:56:29;;;;;;;;;;;;;;;2.71;67.45;101609.22;5002901;28;19914;-70
2021/03/07 02:58:59;;;;;;;;;;;;;;;2.76;67.65;101615.53;5001881;28;19921;-70
2021/03/07 03:01:25;;;;;;;;;;;;;;;2.74;66.86;101601.53;5004511;28;19959;-70
2021/03/07 03:03:51;;;;;;;;;;;;;;;2.73;66.89;101602.38;5003291;28;20368;-70
2021/03/07 03:06:17;;;;;;;;;;;;;;;2.72;67.07;101598.84;5000818;28;19913;-70
2021/03/07 03:08:46;;;;;;;;;;;;;;;2.72;66.27;101601.44;5001033;28;19925;-71
2021/03/07 03:11:12;;;;;;;;;;;;;;;2.70;66.99;101589.19;5004238;28;20051;-70
2021/03/07 03:13:38;;;;;;;;;;;;;;;2.67;66.83;101586.44;5004305;28;20394;-70
2021/03/07 03:16:04;;;;;;;;;;;;;;;2.71;66.63;101586.66;5001213;28;19914;-70
2021/03/07 03:18:31;;;;;;;;;;;;;;;2.73;66.56;101584.13;5001051;28;20283;-71
2021/03/07 03:21:00;;;;;;;;;;;;;;;2.73;66.66;101585.00;5002601;28;19921;-71
2021/03/07 03:23:25;;;;;;;;;;;;;;;2.74;66.43;101581.56;5004423;28;19914;-71
2021/03/07 03:25:51;;;;;;;;;;;;;;;2.74;66.26;101580.69;5002717;28;19913;-70
2021/03/07 03:28:17;;;;;;;;;;;;;;;2.82;66.01;101584.50;5000716;28;19997;-70
2021/03/07 03:30:43;;;;;;;;;;;;;;;2.79;66.06;101589.59;5000657;28;19921;-70
2021/03/07 03:33:08;;;;;;;;;;;;;;;2.80;65.87;101586.13;5003936;28;19924;-70
2021/03/07 03:35:33;;;;;;;;;;;;;;;2.79;65.63;101584.38;5003665;28;19921;-70
2021/03/07 03:37:58;;;;;;;;;;;;;;;2.82;65.74;101585.38;5001652;28;20395;-70
2021/03/07 03:40:26;;;;;;;;;;;;;;;2.85;65.03;101587.22;5000462;28;19921;-71
2021/03/07 03:42:56;;;;;;;;;;;;;;;2.83;65.33;101581.09;5001790;28;19941;-70
2021/03/07 03:45:22;;;;;;;;;;;;;;;2.76;65.16;101579.03;5003673;28;19914;-70
2021/03/07 03:47:51;;;;;;;;;;;;;;;2.77;65.68;101578.19;5003057;28;20012;-71
2021/03/07 03:50:17;;;;;;;;;;;;;;;2.80;65.51;101570.50;5000368;28;19973;-70
2021/03/07 03:52:43;;;;;;;;;;;;;;;2.85;65.58;101574.19;5000543;28;20351;-71
2021/03/07 03:55:10;;;;;;;;;;;;;;;2.88;65.23;101583.84;5003568;28;20004;-71
2021/03/07 03:57:36;;;;;;;;;;;;;;;2.91;65.57;101574.47;5003922;28;19913;-71
2021/03/07 04:00:05;;;;;;;;;;;;;;;2.91;64.67;101579.69;5001102;28;19924;-71
2021/03/07 04:02:32;;;;;;;;;;;;;;;2.87;64.62;101569.06;5000327;28;19914;-71
2021/03/07 04:04:59;;;;;;;;;;;;;;;2.82;64.92;101580.16;5002301;28;20008;-71
2021/03/07 04:07:25;;;;;;;;;;;;;;;2.86;64.87;101573.38;5003480;28;19913;-70
2021/03/07 04:09:52;;;;;;;;;;;;;;;2.83;65.15;101578.47;5003208;28;19920;-70
2021/03/07 04:12:18;;;;;;;;;;;;;;;2.83;64.71;101576.75;5004198;28;19965;-70
2021/03/07 04:14:45;;;;;;;;;;;;;;;2.87;64.95;101571.66;5000236;28;19913;-70
2021/03/07 04:17:10;;;;;;;;;;;;;;;2.89;64.62;101568.28;5011072;28;19976;-71
2021/03/07 04:19:36;;;;;;;;;;;;;;;2.91;63.85;101573.56;5003959;28;19917;-71
2021/03/07 04:22:01;;;;;;;;;;;;;;;2.88;64.56;101563.88;5006577;28;20385;-70
2021/03/07 04:24:27;;;;;;;;;;;;;;;2.93;64.52;101564.06;5007311;28;20295;-71
2021/03/07 04:26:52;;;;;;;;;;;;;;;2.80;64.53;101571.41;5005699;28;19914;-70
2021/03/07 04:29:17;;;;;;;;;;;;;;;2.74;64.30;101571.13;5003936;28;19960;-70
2021/03/07 04:31:43;;;;;;;;;;;;;;;2.69;65.08;101569.16;5003814;28;19960;-70
2021/03/07 04:34:08;;;;;;;;;;;;;;;2.71;64.56;101570.13;5007071;28;19920;-70
2021/03/07 04:36:35;;;;;;;;;;;;;;;2.67;64.63;101563.00;5007037;28;19936;-70
2021/03/07 04:39:00;;;;;;;;;;;;;;;2.69;64.80;101550.91;5004634;28;19960;-71
2021/03/07 04:41:25;;;;;;;;;;;;;;;2.60;65.01;101551.44;5003679;28;20003;-71
2021/03/07 04:43:52;;;;;;;;;;;;;;;2.56;64.92;101547.78;5004730;28;19993;-70
2021/03/07 04:46:18;;;;;;;;;;;;;;;2.63;64.64;101547.22;5006740;28;19949;-71
2021/03/07 04:48:43;;;;;;;;;;;;;;;2.61;64.67;101548.88;5006612;28;19918;-70
2021/03/07 04:51:09;;;;;;;;;;;;;;;2.61;64.63;101543.66;5003395;28;20012;-70
2021/03/07 04:53:34;;;;;;;;;;;;;;;2.60;64.52;101551.44;5003490;28;19913;-70
2021/03/07 04:55:59;;;;;;;;;;;;;;;2.59;64.50;101542.72;5005452;28;19925;-70
2021/03/07 04:58:24;;;;;;;;;;;;;;;2.64;64.81;101543.78;5006706;28;20442;-70
2021/03/07 05:00:50;;;;;;;;;;;;;;;2.69;64.33;101537.88;5005679;28;19967;-70
2021/03/07 05:03:15;;;;;;;;;;;;;;;2.63;64.06;101534.19;5003242;28;19914;-70
2021/03/07 05:05:40;;;;;;;;;;;;;;;2.61;64.30;101538.44;5007046;28;20000;-71
2021/03/07 05:08:06;;;;;;;;;;;;;;;2.65;64.72;101539.47;5003257;28;19913;-70
2021/03/07 05:10:32;;;;;;;;;;;;;;;2.68;64.07;101528.28;5003086;28;19956;-70
2021/03/07 05:12:57;;;;;;;;;;;;;;;2.68;64.20;101528.28;5005046;28;19975;-70
2021/03/07 05:15:22;;;;;;;;;;;;;;;2.61;63.84;101528.00;5006191;28;19913;-70
2021/03/07 05:17:48;;;;;;;;;;;;;;;2.64;64.69;101528.13;5005535;28;19913;-70
2021/03/07 05:20:13;;;;;;;;;;;;;;;2.63;63.93;101525.50;5002960;28;19940;-70
2021/03/07 05:22:38;;;;;;;;;;;;;;;2.56;64.74;101524.31;5001917;28;20299;-70
2021/03/07 05:25:04;;;;;;;;;;;;;;;2.55;64.30;101524.28;5005514;28;19960;-71
2021/03/07 05:27:29;;;;;;;;;;;;;;;2.57;64.42;101525.25;5006187;28;19921;-71
2021/03/07 05:29:54;;;;;;;;;;;;;;;2.52;64.21;101527.66;5004906;28;20064;-70
2021/03/07 05:32:19;;;;;;;;;;;;;;;2.46;63.88;101521.28;5002665;28;19924;-70
2021/03/07 05:34:45;;;;;;;;;;;;;;;2.41;64.49;101529.81;5002948;28;19972;-70
2021/03/07 05:37:10;;;;;;;;;;;;;;;2.37;64.62;101520.06;5005725;28;19913;-70
2021/03/07 05:39:35;;;;;;;;;;;;;;;2.34;64.84;101526.88;5005896;28;20319;-71
2021/03/07 05:42:02;;;;;;;;;;;;;;;2.35;65.25;101516.50;5003558;28;19971;-70
2021/03/07 05:44:27;;;;;;;;;;;;;;;2.37;65.19;101513.97;5002502;28;19913;-70
2021/03/07 05:46:53;;;;;;;;;;;;;;;2.39;65.17;101512.31;5003444;28;19961;-70
2021/03/07 05:49:18;;;;;;;;;;;;;;;2.35;65.66;101513.88;5005801;28;19968;-70
2021/03/07 05:51:44;;;;;;;;;;;;;;;2.39;65.02;101509.72;5005498;28;19964;-70
2021/03/07 05:54:09;;;;;;;;;;;;;;;2.46;64.77;101510.84;5002339;28;20331;-70
2021/03/07 05:56:35;;;;;;;;;;;;;;;2.40;65.00;101501.06;4984529;28;19914;-70
2021/03/07 05:59:01;;;;;;;;;;;;;;;2.42;65.18;101515.06;5004523;28;19914;-71
2021/03/07 06:01:26;;;;;;;;;;;;;;;2.39;65.29;101508.00;5005470;28;20340;-71
2021/03/07 06:03:51;;;;;;;;;;;;;;;2.34;65.43;101516.44;5004334;28;19913;-70
2021/03/07 06:06:16;;;;;;;;;;;;;;;2.30;65.46;101509.31;5001706;28;19936;-70
2021/03/07 06:08:42;;;;;;;;;;;;;;;2.37;64.96;101511.34;5002019;28;20292;-70
2021/03/07 06:11:07;;;;;;;;;;;;;;;2.28;65.43;101509.25;5005187;28;19951;-70
2021/03/07 06:13:37;;;;;;;;;;;;;;;2.29;65.34;101511.03;5005267;28;20059;-70
2021/03/07 06:16:07;;;;;;;;;;;;;;;2.33;65.55;101510.34;5002342;28;19996;-70
2021/03/07 06:18:38;;;;;;;;;;;;;;;2.43;65.23;101509.00;5001856;28;20356;-70
2021/03/07 06:21:23;;;;;;;;;;;;;;;2.39;65.11;101512.31;5004655;28;20012;-71
2021/03/07 06:23:48;;;;;;;;;;;;;;;2.36;65.30;101509.59;5004145;28;19953;-70
2021/03/07 06:26:14;;;;;;;;;;;;;;;2.35;65.20;101515.59;5059131;23;20015;-75
2021/03/07 06:28:39;;;;;;;;;;;;;;;2.38;64.95;101507.91;5013062;28;19921;-75
2021/03/07 06:31:24;;;;;;;;;;;;;;;2.36;65.18;101502.66;5012718;28;20403;-75
2021/03/07 06:33:55;;;;;;;;;;;;;;;2.36;65.23;101504.38;5012742;28;19913;-75
2021/03/07 06:36:22;;;;;;;;;;;;;;;2.38;65.39;101502.69;5007601;28;19913;-75
2021/03/07 06:38:48;;;;;;;;;;;;;;;2.36;65.15;101499.16;5001993;28;20294;-75
2021/03/07 06:41:15;;;;;;;;;;;;;;;2.45;65.06;101509.09;5004751;28;19921;-75
2021/03/07 06:43:40;;;;;;;;;;;;;;;2.52;64.34;101498.09;5004708;28;19914;-75
2021/03/07 06:46:05;;;;;;;;;;;;;;;2.59;64.58;101498.41;5001314;28;19972;-74
2021/03/07 06:48:34;;;;;;;;;;;;;;;2.60;64.69;101497.59;5001348;28;19924;-75
2021/03/07 06:50:59;;;;;;;;;;;;;;;2.63;64.96;101494.22;5003259;28;19913;-75
2021/03/07 06:53:31;;;;;;;;;;;;;;;2.58;64.34;101490.53;5004569;28;20367;-75
2021/03/07 06:55:56;;;;;;;;;;;;;;;2.58;64.72;101503.56;4984896;28;19920;-75
2021/03/07 06:58:21;;;;;;;;;;;;;;;2.62;65.26;101503.75;5001058;28;19914;-74
2021/03/07 07:00:47;;;;;;;;;;;;;;;2.59;64.69;101507.94;5001579;28;19914;-74
2021/03/07 07:03:13;;;;;;;;;;;;;;;2.57;64.45;101510.50;4989277;28;19913;-75
2021/03/07 07:05:39;;;;;;;;;;;;;;;2.60;65.33;101504.53;5004047;28;20299;-75
2021/03/07 07:08:04;;;;;;;;;;;;;;;2.60;65.05;101505.41;5000121;28;20388;-75
2021/03/07 07:10:30;;;;;;;;;;;;;;;2.70;64.83;101501.47;5000893;28;20060;-74
2021/03/07 07:13:04;;;;;;;;;;;;;;;2.79;64.47;101507.03;5002369;28;19925;-75
2021/03/07 07:15:30;;;;;;;;;;;;;;;2.73;64.49;101508.53;4986347;28;19949;-74
2021/03/07 07:17:56;;;;;;;;;;;;;;;2.80;64.33;101507.94;5002526;28;19948;-75
2021/03/07 07:20:21;;;;;;;;;;;;;;;2.80;64.36;101510.53;5000752;28;19933;-75
2021/03/07 07:22:46;;;;;;;;;;;;;;;2.82;64.52;101501.06;5001167;28;20376;-75
2021/03/07 07:25:12;;;;;;;;;;;;;;;2.87;64.67;101498.66;5003667;28;19913;-75
2021/03/07 07:27:37;;;;;;;;;;;;;;;2.86;64.23;101497.78;5004102;28;20364;-75
2021/03/07 07:30:04;;;;;;;;;;;;;;;2.91;64.13;101500.53;4983808;28;19917;-75
2021/03/07 07:32:41;;;;;;;;;;;;;;;2.92;64.35;101497.13;5000521;28;19924;-75
2021/03/07 07:35:08;;;;;;;;;;;;;;;3.04;63.99;101500.22;5003277;28;19967;-75
2021/03/07 07:37:33;;;;;;;;;;;;;;;3.04;64.13;101492.41;5003904;28;19921;-75
2021/03/07 07:39:59;;;;;;;;;;;;;;;3.08;63.46;101500.38;5001633;28;19913;-74
2021/03/07 07:42:26;;;;;;;;;;;;;;;3.07;64.20;101488.19;5000548;28;19913;-75
2021/03/07 07:44:56;;;;;;;;;;;;;;;3.05;63.78;101499.38;4984030;28;19914;-74
2021/03/07 07:47:21;;;;;;;;;;;;;;;3.16;63.85;101500.69;5003618;28;20034;-75
2021/03/07 07:49:50;;;;;;;;;;;;;;;3.23;63.32;101502.72;5003228;28;20004;-74
2021/03/07 07:52:25;;;;;;;;;;;;;;;3.25;63.69;101494.97;5000335;28;19928;-75
2021/03/07 07:54:54;;;;;;;;;;;;;;;3.21;63.56;101490.44;5001241;28;19913;-75
2021/03/07 07:57:32;;;;;;;;;;;;;;;3.15;63.67;101495.44;5003547;28;19913;-75
2021/03/07 07:59:58;;;;;;;;;;;;;;;3.22;63.55;101502.66;4984200;28;19913;-74
2021/03/07 08:02:42;;;;;;;;;;;;;;;3.33;63.63;101495.25;5000291;28;20004;-74
2021/03/07 08:05:28;;;;;;;;;;;;;;;3.31;63.19;101500.41;5003168;28;19914;-75
2021/03/07 08:07:58;;;;;;;;;;;;;;;3.33;62.77;101493.53;4991948;28;19924;-75
2021/03/07 08:10:42;;;;;;;;;;;;;;;3.29;62.62;101489.91;5000265;28;19920;-74
2021/03/07 08:13:14;;;;;;;;;;;;;;;3.38;63.70;101488.47;5003311;28;19918;-75
2021/03/07 08:15:40;;;;;;;;;;;;;;;3.40;62.91;101476.38;5003311;28;19914;-75
2021/03/07 08:18:06;;;;;;;;;;;;;;;3.52;63.05;101482.06;5000423;28;19960;-75
2021/03/07 08:20:54;;;;;;;;;;;;;;;3.65;61.95;101481.69;5000268;28;19957;-75
2021/03/07 08:23:23;;;;;;;;;;;;;;;3.62;61.82;101472.88;4993512;28;19914;-75
2021/03/07 08:25:51;;;;;;;;;;;;;;;3.65;62.50;101475.59;5000316;28;19920;-75
2021/03/07 08:28:29;;;;;;;;;;;;;;;3.71;62.01;101467.97;5003479;28;19916;-75
2021/03/07 08:30:55;;;;;;;;;;;;;;;3.74;61.97;101462.88;4984486;28;20314;-75
2021/03/07 08:33:21;;;;;;;;;;;;;;;3.78;62.03;101469.09;4999973;28;19917;-75
2021/03/07 08:36:06;;;;;;;;;;;;;;;3.72;61.98;101467.13;4999007;28;19910;-75
2021/03/07 08:38:31;;;;;;;;;;;;;;;3.65;62.82;101466.03;5010204;28;19916;-75
2021/03/07 08:40:56;;;;;;;;;;;;;;;3.65;62.60;101473.00;5001490;28;20551;-75
2021/03/07 08:43:22;;;;;;;;;;;;;;;3.73;62.38;101466.31;5000020;28;20292;-75
2021/03/07 08:46:00;;;;;;;;;;;;;;;3.65;62.78;101459.94;5000255;28;19975;-75
2021/03/07 08:48:26;;;;;;;;;;;;;;;3.65;62.60;101459.94;5003274;28;20044;-75
2021/03/07 08:50:52;;;;;;;;;;;;;;;3.57;63.33;101461.38;5002049;28;19917;-74
2021/03/07 08:53:23;;;;;;;;;;;;;;;3.57;63.32;101453.53;4999832;28;19933;-75
2021/03/07 08:55:49;;;;;;;;;;;;;;;3.58;63.19;101450.09;4982777;28;20533;-75
2021/03/07 08:58:14;;;;;;;;;;;;;;;3.69;63.59;101446.13;5005822;28;19921;-75
2021/03/07 09:00:46;;;;;;;;;;;;;;;3.70;63.50;101455.78;5006766;28;19913;-75
2021/03/07 09:03:12;;;;;;;;;;;;;;;3.72;63.46;101454.06;5005079;28;19925;-75
2021/03/07 09:05:38;;;;;;;;;;;;;;;3.61;64.04;101445.84;5002972;28;19917;-75
2021/03/07 09:08:03;;;;;;;;;;;;;;;3.68;63.81;101449.59;5005821;28;20593;-75
2021/03/07 09:10:33;;;;;;;;;;;;;;;3.69;64.09;101448.75;5006427;28;19936;-75
2021/03/07 09:13:25;;;;;;;;;;;;;;;3.79;63.27;101448.25;5004486;28;19918;-75
2021/03/07 09:15:51;;;;;;;;;;;;;;;3.90;63.27;101441.72;5001516;28;20327;-74
2021/03/07 09:18:21;;;;;;;;;;;;;;;3.92;63.55;101440.03;5006364;28;19913;-75
2021/03/07 09:20:53;;;;;;;;;;;;;;;3.98;63.43;101446.28;5005853;28;19924;-75
2021/03/07 09:23:38;;;;;;;;;;;;;;;3.82;63.32;101458.81;5002972;28;19952;-75
2021/03/07 09:26:05;;;;;;;;;;;;;;;3.58;64.06;101445.75;4995699;28;19914;-75
2021/03/07 09:28:35;;;;;;;;;;;;;;;3.56;64.51;101439.56;5006177;28;20334;-75
2021/03/07 09:31:01;;;;;;;;;;;;;;;3.66;63.74;101436.47;5003569;28;19914;-75
2021/03/07 09:33:27;;;;;;;;;;;;;;;3.63;64.09;101435.50;5001483;28;20303;-75
2021/03/07 09:36:19;;;;;;;;;;;;;;;3.79;63.68;101435.19;5003572;28;19921;-75
2021/03/07 09:39:00;;;;;;;;;;;;;;;3.94;62.99;101440.97;4993403;28;20368;-74
2021/03/07 09:41:44;;;;;;;;;;;;;;;3.90;63.44;101440.81;5002413;28;19914;-74
2021/03/07 09:44:12;;;;;;;;;;;;;;;3.82;64.01;101440.53;4994647;28;20440;-74
2021/03/07 09:46:42;;;;;;;;;;;;;;;3.91;63.17;101430.41;5001175;28;20277;-75
2021/03/07 09:49:08;;;;;;;;;;;;;;;3.89;62.50;101439.91;5005508;28;19914;-74
2021/03/07 09:51:35;;;;;;;;;;;;;;;3.89;62.88;101439.03;5005673;28;20014;-75
2021/03/07 09:54:00;;;;;;;;;;;;;;;3.94;63.29;101429.66;5003279;28;19996;-75
2021/03/07 09:56:26;;;;;;;;;;;;;;;3.96;62.86;101433.19;5001995;28;19913;-75
2021/03/07 09:58:51;;;;;;;;;;;;;;;3.91;62.41;101425.19;5003295;28;19924;-74
2021/03/07 10:01:16;;;;;;;;;;;;;;;4.00;61.83;101431.56;5005469;28;19913;-75
2021/03/07 10:03:42;;;;;;;;;;;;;;;3.87;62.39;101423.31;5005517;28;19913;-75
2021/03/07 10:06:07;;;;;;;;;;;;;;;4.08;61.99;101428.38;5001917;28;19960;-75
2021/03/07 10:08:34;;;;;;;;;;;;;;;4.02;61.71;101427.31;5000514;28;19961;-75
2021/03/07 10:11:19;;;;;;;;;;;;;;;4.09;62.04;101429.31;5004129;28;19916;-75
2021/03/07 10:13:45;;;;;;;;;;;;;;;4.15;61.63;101434.72;5005267;28;19969;-74
2021/03/07 10:16:22;;;;;;;;;;;;;;;4.14;61.09;101420.78;4968045;28;19914;-75
2021/03/07 10:18:47;;;;;;;;;;;;;;;4.15;60.82;101430.38;5002493;28;20028;-75
2021/03/07 10:21:13;;;;;;;;;;;;;;;4.16;61.43;101433.88;5005113;28;20592;-75
2021/03/07 10:23:38;;;;;;;;;;;;;;;4.22;60.67;101422.75;5005181;28;19917;-75
2021/03/07 10:26:04;;;;;;;;;;;;;;;4.22;60.25;101427.97;5001946;28;19918;-75
2021/03/07 10:28:31;;;;;;;;;;;;;;;4.18;59.82;101426.97;5001666;28;19921;-75
2021/03/07 10:31:14;;;;;;;;;;;;;;;4.24;59.41;101429.78;5003258;28;19914;-75
2021/03/07 10:33:40;;;;;;;;;;;;;;;4.36;59.62;101417.16;4971269;28;20000;-75
2021/03/07 10:36:10;;;;;;;;;;;;;;;4.50;58.80;101417.59;5001713;28;20304;-75
2021/03/07 10:38:38;;;;;;;;;;;;;;;4.60;58.69;101410.94;5001582;28;19914;-75
2021/03/07 10:41:24;;;;;;;;;;;;;;;4.58;58.52;101408.31;5004104;28;19921;-75
2021/03/07 10:43:59;;;;;;;;;;;;;;;4.54;56.30;101413.38;4986468;28;19960;-75
2021/03/07 10:46:32;;;;;;;;;;;;;;;4.52;57.39;101410.69;5001095;28;20446;-75
2021/03/07 10:48:59;;;;;;;;;;;;;;;4.53;56.76;101406.34;5003119;28;19963;-75
2021/03/07 10:51:25;;;;;;;;;;;;;;;4.46;56.16;101412.25;5004521;28;20443;-74
2021/03/07 10:53:53;;;;;;;;;;;;;;;4.29;55.44;101423.00;5003713;28;20043;-75
2021/03/07 10:56:19;;;;;;;;;;;;;;;4.25;56.21;101409.81;5000847;28;19914;-75
2021/03/07 10:58:44;;;;;;;;;;;;;;;4.31;53.40;101428.28;5004800;28;19918;-75
2021/03/07 11:01:15;;;;;;;;;;;;;;;4.16;53.62;101408.63;5001039;28;19920;-75
2021/03/07 11:03:40;;;;;;;;;;;;;;;4.37;53.58;101403.22;4991783;28;20308;-75
2021/03/07 11:06:05;;;;;;;;;;;;;;;4.36;53.95;101391.00;5003619;28;19913;-74
2021/03/07 11:08:30;;;;;;;;;;;;;;;4.41;53.86;101403.38;5004328;28;19917;-75
2021/03/07 11:10:56;;;;;;;;;;;;;;;4.51;53.82;101405.44;5002590;28;19936;-74
2021/03/07 11:13:21;;;;;;;;;;;;;;;4.57;53.19;101403.00;5000723;28;19918;-75
2021/03/07 11:15:46;;;;;;;;;;;;;;;4.40;53.58;101392.00;5000916;28;19914;-75
2021/03/07 11:18:12;;;;;;;;;;;;;;;4.39;53.82;101398.94;5004389;28;19936;-75
2021/03/07 11:20:37;;;;;;;;;;;;;;;4.47;52.49;101406.16;5003571;28;19913;-75
2021/03/07 11:23:02;;;;;;;;;;;;;;;4.53;51.89;101385.44;5001578;28;19920;-75
2021/03/07 11:25:28;;;;;;;;;;;;;;;4.44;52.20;101386.03;5000402;28;19913;-75
2021/03/07 11:27:53;;;;;;;;;;;;;;;4.39;52.25;101375.44;5001888;28;19967;-75
2021/03/07 11:30:18;;;;;;;;;;;;;;;4.51;51.35;101393.25;5003962;28;20003;-74
2021/03/07 11:32:44;;;;;;;;;;;;;;;4.36;52.51;101364.88;5003946;28;19947;-75
2021/03/07 11:35:09;;;;;;;;;;;;;;;4.49;51.72;101362.66;4992295;28;19921;-75
2021/03/07 11:37:34;;;;;;;;;;;;;;;4.49;52.55;101362.66;5000598;28;19914;-75
2021/03/07 11:40:00;;;;;;;;;;;;;;;4.61;51.88;101363.94;5002697;28;19921;-75
2021/03/07 11:42:25;;;;;;;;;;;;;;;4.64;51.47;101371.00;5003769;28;19924;-75
2021/03/07 11:44:50;;;;;;;;;;;;;;;4.58;50.41;101373.41;5002880;28;19945;-75
2021/03/07 11:47:15;;;;;;;;;;;;;;;4.67;50.59;101347.56;5000204;28;19913;-75
2021/03/07 11:49:41;;;;;;;;;;;;;;;4.73;50.71;101352.97;5000413;28;20561;-75
2021/03/07 11:52:06;;;;;;;;;;;;;;;4.84;49.77;101351.56;5003362;28;19924;-75
2021/03/07 11:54:32;;;;;;;;;;;;;;;4.88;50.27;101330.75;5003877;28;19917;-74
2021/03/07 11:56:57;;;;;;;;;;;;;;;4.81;50.34;101356.69;4984062;28;19960;-75
2021/03/07 11:59:22;;;;;;;;;;;;;;;4.63;50.41;101335.22;5000304;28;19969;-75
2021/03/07 12:01:47;;;;;;;;;;;;;;;4.66;51.33;101330.06;5000908;28;20555;-74
2021/03/07 12:04:13;;;;;;;;;;;;;;;4.84;50.30;101341.09;5003771;28;20359;-75
2021/03/07 12:06:38;;;;;;;;;;;;;;;4.93;50.68;101316.97;5003438;28;19917;-75
2021/03/07 12:09:03;;;;;;;;;;;;;;;4.97;50.78;101304.84;5001017;28;19917;-75
2021/03/07 12:11:28;;;;;;;;;;;;;;;5.10;50.65;101303.47;5000162;28;19921;-75
2021/03/07 12:13:53;;;;;;;;;;;;;;;5.04;50.05;101323.38;5001565;28;20005;-74
2021/03/07 12:16:19;;;;;;;;;;;;;;;5.03;50.03;101299.78;4985704;28;19963;-75
2021/03/07 12:18:44;;;;;;;;;;;;;;;4.95;49.91;101291.75;5003480;28;19913;-75
2021/03/07 12:21:10;;;;;;;;;;;;;;;4.98;49.70;101290.94;4998983;28;19914;-75
2021/03/07 12:23:35;;;;;;;;;;;;;;;4.90;50.59;101284.56;5000242;28;20369;-75
2021/03/07 12:26:00;;;;;;;;;;;;;;;4.92;50.69;101275.03;5001815;28;19940;-75
2021/03/07 12:28:25;;;;;;;;;;;;;;;4.94;50.62;101286.44;5003477;28;20005;-75
2021/03/07 12:30:51;;;;;;;;;;;;;;;4.79;50.27;101282.56;5003217;28;19961;-75
2021/03/07 12:33:16;;;;;;;;;;;;;;;4.91;49.86;101268.06;5003803;28;20446;-75
2021/03/07 12:35:42;;;;;;;;;;;;;;;4.87;50.54;101260.94;5003571;28;20009;-75
2021/03/07 12:38:07;;;;;;;;;;;;;;;5.05;49.91;101248.38;5006854;28;19925;-75
2021/03/07 12:40:32;;;;;;;;;;;;;;;5.07;50.02;101249.31;5007096;28;19921;-75
2021/03/07 12:42:57;;;;;;;;;;;;;;;5.00;50.19;101247.38;5005060;28;19914;-75
2021/03/07 12:45:23;;;;;;;;;;;;;;;4.95;50.55;101238.50;5003350;28;19917;-75
2021/03/07 12:47:48;;;;;;;;;;;;;;;4.98;51.31;101233.38;5004128;28;19920;-75